sensor_id;sensor_type;location;lat;lon;timestamp;P1;durP1;ratioP1;P2;durP2;ratioP2
9306;SDS011;4691;47.612;7.610;2022-12-10T00:00:32;110.00;;;40.38;;
9306;SDS011;4691;47.612;7.610;2022-12-10T00:02:57;164.10;;;52.22;;
9306;SDS011;4691;47.612;7.610;2022-12-10T00:05:23;184.95;;;56.90;;
9306;SDS011;4691;47.612;7.610;2022-12-10T00:07:48;298.00;;;80.85;;
9306;SDS011;4691;47.612;7.610;2022-12-10T00:10:13;154.32;;;49.25;;
9306;SDS011;4691;47.612;7.610;2022-12-10T00:12:39;144.40;;;48.50;;
9306;SDS011;4691;47.612;7.610;2022-12-10T00:15:04;133.85;;;45.58;;
9306;SDS011;4691;47.612;7.610;2022-12-10T00:17:30;124.55;;;41.85;;
9306;SDS011;4691;47.612;7.610;2022-12-10T00:19:55;191.07;;;59.38;;
9306;SDS011;4691;47.612;7.610;2022-12-10T00:22:20;144.55;;;48.25;;
9306;SDS011;4691;47.612;7.610;2022-12-10T00:24:46;151.60;;;48.60;;
9306;SDS011;4691;47.612;7.610;2022-12-10T00:27:11;123.93;;;42.10;;
9306;SDS011;4691;47.612;7.610;2022-12-10T00:29:36;133.50;;;44.58;;
9306;SDS011;4691;47.612;7.610;2022-12-10T00:32:01;148.90;;;48.40;;
9306;SDS011;4691;47.612;7.610;2022-12-10T00:34:30;105.40;;;39.80;;
9306;SDS011;4691;47.612;7.610;2022-12-10T00:36:55;113.35;;;42.78;;
9306;SDS011;4691;47.612;7.610;2022-12-10T00:39:21;113.43;;;41.42;;
9306;SDS011;4691;47.612;7.610;2022-12-10T00:41:47;168.90;;;52.75;;
9306;SDS011;4691;47.612;7.610;2022-12-10T00:44:13;125.10;;;44.03;;
9306;SDS011;4691;47.612;7.610;2022-12-10T00:46:39;119.95;;;43.13;;
9306;SDS011;4691;47.612;7.610;2022-12-10T00:49:04;148.70;;;46.05;;
9306;SDS011;4691;47.612;7.610;2022-12-10T00:51:30;141.05;;;45.95;;
9306;SDS011;4691;47.612;7.610;2022-12-10T00:53:56;118.20;;;41.55;;
9306;SDS011;4691;47.612;7.610;2022-12-10T00:56:24;132.23;;;43.55;;
9306;SDS011;4691;47.612;7.610;2022-12-10T00:58:51;137.93;;;46.20;;
9306;SDS011;4691;47.612;7.610;2022-12-10T01:01:22;138.45;;;46.47;;
9306;SDS011;4691;47.612;7.610;2022-12-10T01:03:58;115.17;;;40.53;;
9306;SDS011;4691;47.612;7.610;2022-12-10T01:06:30;118.18;;;41.28;;
9306;SDS011;4691;47.612;7.610;2022-12-10T01:08:58;120.60;;;42.10;;
9306;SDS011;4691;47.612;7.610;2022-12-10T01:11:26;113.43;;;42.10;;
9306;SDS011;4691;47.612;7.610;2022-12-10T01:13:54;126.75;;;41.33;;
9306;SDS011;4691;47.612;7.610;2022-12-10T01:16:20;104.18;;;39.50;;
9306;SDS011;4691;47.612;7.610;2022-12-10T01:18:47;123.07;;;43.75;;
9306;SDS011;4691;47.612;7.610;2022-12-10T01:21:14;113.25;;;39.88;;
9306;SDS011;4691;47.612;7.610;2022-12-10T01:23:42;118.80;;;41.17;;
9306;SDS011;4691;47.612;7.610;2022-12-10T01:26:10;116.95;;;42.78;;
9306;SDS011;4691;47.612;7.610;2022-12-10T01:28:38;156.82;;;47.83;;
9306;SDS011;4691;47.612;7.610;2022-12-10T01:31:09;117.68;;;44.05;;
9306;SDS011;4691;47.612;7.610;2022-12-10T01:33:40;121.35;;;42.28;;
9306;SDS011;4691;47.612;7.610;2022-12-10T01:36:09;121.32;;;43.92;;
9306;SDS011;4691;47.612;7.610;2022-12-10T01:38:37;120.82;;;43.58;;
9306;SDS011;4691;47.612;7.610;2022-12-10T01:41:03;130.25;;;47.05;;
9306;SDS011;4691;47.612;7.610;2022-12-10T01:43:33;149.43;;;47.50;;
9306;SDS011;4691;47.612;7.610;2022-12-10T01:46:28;137.30;;;45.10;;
9306;SDS011;4691;47.612;7.610;2022-12-10T01:48:56;104.63;;;38.95;;
9306;SDS011;4691;47.612;7.610;2022-12-10T01:51:23;131.23;;;43.85;;
9306;SDS011;4691;47.612;7.610;2022-12-10T01:53:50;151.00;;;49.08;;
9306;SDS011;4691;47.612;7.610;2022-12-10T01:56:17;98.00;;;40.35;;
9306;SDS011;4691;47.612;7.610;2022-12-10T01:58:44;135.10;;;48.97;;
9306;SDS011;4691;47.612;7.610;2022-12-10T02:01:10;128.65;;;46.13;;
9306;SDS011;4691;47.612;7.610;2022-12-10T02:03:47;113.45;;;43.50;;
9306;SDS011;4691;47.612;7.610;2022-12-10T02:06:37;140.52;;;48.47;;
9306;SDS011;4691;47.612;7.610;2022-12-10T02:09:18;155.77;;;52.75;;
9306;SDS011;4691;47.612;7.610;2022-12-10T02:20:14;97.00;;;41.22;;
9306;SDS011;4691;47.612;7.610;2022-12-10T02:22:45;99.25;;;42.08;;
9306;SDS011;4691;47.612;7.610;2022-12-10T02:25:14;133.65;;;48.00;;
9306;SDS011;4691;47.612;7.610;2022-12-10T02:27:44;132.73;;;47.85;;
9306;SDS011;4691;47.612;7.610;2022-12-10T02:30:33;149.13;;;52.03;;
9306;SDS011;4691;47.612;7.610;2022-12-10T02:33:01;197.25;;;60.55;;
9306;SDS011;4691;47.612;7.610;2022-12-10T02:35:31;146.00;;;50.65;;
9306;SDS011;4691;47.612;7.610;2022-12-10T02:38:04;163.43;;;53.45;;
9306;SDS011;4691;47.612;7.610;2022-12-10T02:40:35;116.07;;;45.65;;
9306;SDS011;4691;47.612;7.610;2022-12-10T02:43:04;147.65;;;52.38;;
9306;SDS011;4691;47.612;7.610;2022-12-10T02:45:32;114.57;;;46.17;;
9306;SDS011;4691;47.612;7.610;2022-12-10T02:47:59;104.40;;;43.20;;
9306;SDS011;4691;47.612;7.610;2022-12-10T02:50:28;133.30;;;49.78;;
9306;SDS011;4691;47.612;7.610;2022-12-10T02:52:53;158.68;;;53.25;;
9306;SDS011;4691;47.612;7.610;2022-12-10T02:55:19;104.55;;;43.70;;
9306;SDS011;4691;47.612;7.610;2022-12-10T02:57:50;134.50;;;49.40;;
9306;SDS011;4691;47.612;7.610;2022-12-10T03:00:40;144.13;;;49.35;;
9306;SDS011;4691;47.612;7.610;2022-12-10T03:05:47;136.77;;;47.42;;
9306;SDS011;4691;47.612;7.610;2022-12-10T03:08:18;159.45;;;51.15;;
9306;SDS011;4691;47.612;7.610;2022-12-10T03:11:04;133.13;;;49.63;;
9306;SDS011;4691;47.612;7.610;2022-12-10T03:19:35;120.00;;;44.65;;
9306;SDS011;4691;47.612;7.610;2022-12-10T03:22:05;130.15;;;47.20;;
9306;SDS011;4691;47.612;7.610;2022-12-10T03:24:33;154.95;;;52.22;;
9306;SDS011;4691;47.612;7.610;2022-12-10T03:27:00;113.72;;;45.35;;
9306;SDS011;4691;47.612;7.610;2022-12-10T03:29:33;138.27;;;49.78;;
9306;SDS011;4691;47.612;7.610;2022-12-10T03:32:02;149.27;;;53.90;;
9306;SDS011;4691;47.612;7.610;2022-12-10T03:34:28;112.05;;;43.05;;
9306;SDS011;4691;47.612;7.610;2022-12-10T03:36:53;134.13;;;49.42;;
9306;SDS011;4691;47.612;7.610;2022-12-10T03:39:20;169.90;;;54.33;;
9306;SDS011;4691;47.612;7.610;2022-12-10T03:41:45;141.68;;;52.50;;
9306;SDS011;4691;47.612;7.610;2022-12-10T03:44:11;165.07;;;54.72;;
9306;SDS011;4691;47.612;7.610;2022-12-10T03:46:36;126.72;;;48.58;;
9306;SDS011;4691;47.612;7.610;2022-12-10T03:49:02;117.57;;;48.90;;
9306;SDS011;4691;47.612;7.610;2022-12-10T03:51:28;117.97;;;45.33;;
9306;SDS011;4691;47.612;7.610;2022-12-10T03:53:54;140.43;;;50.45;;
9306;SDS011;4691;47.612;7.610;2022-12-10T03:56:19;140.27;;;49.78;;
9306;SDS011;4691;47.612;7.610;2022-12-10T03:58:45;142.25;;;50.45;;
9306;SDS011;4691;47.612;7.610;2022-12-10T04:01:11;157.95;;;53.63;;
9306;SDS011;4691;47.612;7.610;2022-12-10T04:03:37;129.73;;;47.65;;
9306;SDS011;4691;47.612;7.610;2022-12-10T04:06:04;166.30;;;55.40;;
9306;SDS011;4691;47.612;7.610;2022-12-10T04:08:36;174.70;;;55.15;;
9306;SDS011;4691;47.612;7.610;2022-12-10T04:11:06;126.88;;;47.85;;
9306;SDS011;4691;47.612;7.610;2022-12-10T04:13:34;142.00;;;51.05;;
9306;SDS011;4691;47.612;7.610;2022-12-10T04:16:19;105.40;;;42.53;;
9306;SDS011;4691;47.612;7.610;2022-12-10T04:21:30;198.80;;;58.42;;
9306;SDS011;4691;47.612;7.610;2022-12-10T04:24:16;156.80;;;51.22;;
9306;SDS011;4691;47.612;7.610;2022-12-10T04:27:03;169.48;;;54.78;;
9306;SDS011;4691;47.612;7.610;2022-12-10T04:29:42;168.50;;;53.38;;
9306;SDS011;4691;47.612;7.610;2022-12-10T04:32:07;152.38;;;55.42;;
9306;SDS011;4691;47.612;7.610;2022-12-10T04:34:33;135.75;;;50.53;;
9306;SDS011;4691;47.612;7.610;2022-12-10T04:36:58;166.20;;;52.63;;
9306;SDS011;4691;47.612;7.610;2022-12-10T04:39:24;171.25;;;54.95;;
9306;SDS011;4691;47.612;7.610;2022-12-10T04:41:50;184.52;;;60.80;;
9306;SDS011;4691;47.612;7.610;2022-12-10T04:44:16;143.35;;;51.88;;
9306;SDS011;4691;47.612;7.610;2022-12-10T04:46:42;139.40;;;51.90;;
9306;SDS011;4691;47.612;7.610;2022-12-10T04:49:07;149.70;;;51.78;;
9306;SDS011;4691;47.612;7.610;2022-12-10T04:51:33;170.93;;;54.95;;
9306;SDS011;4691;47.612;7.610;2022-12-10T04:53:58;162.80;;;52.20;;
9306;SDS011;4691;47.612;7.610;2022-12-10T04:56:24;176.65;;;56.20;;
9306;SDS011;4691;47.612;7.610;2022-12-10T04:58:50;179.85;;;56.33;;
9306;SDS011;4691;47.612;7.610;2022-12-10T05:01:15;193.27;;;56.38;;
9306;SDS011;4691;47.612;7.610;2022-12-10T05:03:43;129.20;;;46.72;;
9306;SDS011;4691;47.612;7.610;2022-12-10T05:06:09;148.52;;;50.90;;
9306;SDS011;4691;47.612;7.610;2022-12-10T05:08:37;190.57;;;58.08;;
9306;SDS011;4691;47.612;7.610;2022-12-10T05:11:04;178.88;;;58.85;;
9306;SDS011;4691;47.612;7.610;2022-12-10T05:13:31;200.40;;;61.08;;
9306;SDS011;4691;47.612;7.610;2022-12-10T05:15:57;126.05;;;46.65;;
9306;SDS011;4691;47.612;7.610;2022-12-10T05:18:22;151.30;;;51.28;;
9306;SDS011;4691;47.612;7.610;2022-12-10T05:20:49;150.43;;;51.85;;
9306;SDS011;4691;47.612;7.610;2022-12-10T05:23:14;160.85;;;54.17;;
9306;SDS011;4691;47.612;7.610;2022-12-10T05:28:29;164.10;;;52.97;;
9306;SDS011;4691;47.612;7.610;2022-12-10T05:30:55;145.68;;;48.65;;
9306;SDS011;4691;47.612;7.610;2022-12-10T05:33:21;150.43;;;51.00;;
9306;SDS011;4691;47.612;7.610;2022-12-10T05:35:59;200.65;;;59.05;;
9306;SDS011;4691;47.612;7.610;2022-12-10T05:40:52;167.30;;;52.05;;
9306;SDS011;4691;47.612;7.610;2022-12-10T05:43:18;121.15;;;46.58;;
9306;SDS011;4691;47.612;7.610;2022-12-10T05:45:44;160.43;;;52.55;;
9306;SDS011;4691;47.612;7.610;2022-12-10T05:48:10;142.95;;;52.00;;
9306;SDS011;4691;47.612;7.610;2022-12-10T05:50:36;164.73;;;53.20;;
9306;SDS011;4691;47.612;7.610;2022-12-10T05:53:01;148.68;;;50.92;;
9306;SDS011;4691;47.612;7.610;2022-12-10T05:55:27;177.23;;;54.25;;
9306;SDS011;4691;47.612;7.610;2022-12-10T05:57:54;125.10;;;47.20;;
9306;SDS011;4691;47.612;7.610;2022-12-10T06:00:19;158.30;;;52.17;;
9306;SDS011;4691;47.612;7.610;2022-12-10T06:02:46;138.68;;;49.15;;
9306;SDS011;4691;47.612;7.610;2022-12-10T06:05:11;121.35;;;45.22;;
9306;SDS011;4691;47.612;7.610;2022-12-10T06:07:36;160.55;;;53.63;;
9306;SDS011;4691;47.612;7.610;2022-12-10T06:10:02;164.40;;;53.15;;
9306;SDS011;4691;47.612;7.610;2022-12-10T06:12:27;154.45;;;50.60;;
9306;SDS011;4691;47.612;7.610;2022-12-10T06:14:53;159.70;;;52.30;;
9306;SDS011;4691;47.612;7.610;2022-12-10T06:17:18;155.13;;;51.40;;
9306;SDS011;4691;47.612;7.610;2022-12-10T06:19:43;185.45;;;55.80;;
9306;SDS011;4691;47.612;7.610;2022-12-10T06:22:08;166.98;;;53.20;;
9306;SDS011;4691;47.612;7.610;2022-12-10T06:24:34;160.75;;;52.08;;
9306;SDS011;4691;47.612;7.610;2022-12-10T06:26:59;107.07;;;42.95;;
9306;SDS011;4691;47.612;7.610;2022-12-10T06:29:24;153.02;;;50.78;;
9306;SDS011;4691;47.612;7.610;2022-12-10T06:31:49;115.70;;;42.58;;
9306;SDS011;4691;47.612;7.610;2022-12-10T06:34:15;164.35;;;51.60;;
9306;SDS011;4691;47.612;7.610;2022-12-10T06:36:40;166.80;;;52.33;;
9306;SDS011;4691;47.612;7.610;2022-12-10T06:39:05;177.18;;;55.10;;
9306;SDS011;4691;47.612;7.610;2022-12-10T06:41:31;166.27;;;52.47;;
9306;SDS011;4691;47.612;7.610;2022-12-10T06:43:56;174.48;;;52.35;;
9306;SDS011;4691;47.612;7.610;2022-12-10T06:46:24;162.07;;;51.67;;
9306;SDS011;4691;47.612;7.610;2022-12-10T06:48:52;163.18;;;53.10;;
9306;SDS011;4691;47.612;7.610;2022-12-10T06:51:17;204.73;;;58.38;;
9306;SDS011;4691;47.612;7.610;2022-12-10T06:53:43;212.57;;;59.17;;
9306;SDS011;4691;47.612;7.610;2022-12-10T06:56:12;189.35;;;54.67;;
9306;SDS011;4691;47.612;7.610;2022-12-10T06:58:42;218.52;;;62.65;;
9306;SDS011;4691;47.612;7.610;2022-12-10T07:01:10;215.00;;;61.90;;
9306;SDS011;4691;47.612;7.610;2022-12-10T07:03:37;200.60;;;56.00;;
9306;SDS011;4691;47.612;7.610;2022-12-10T07:06:03;180.48;;;54.28;;
9306;SDS011;4691;47.612;7.610;2022-12-10T07:08:32;152.43;;;52.33;;
9306;SDS011;4691;47.612;7.610;2022-12-10T07:10:57;199.23;;;59.72;;
9306;SDS011;4691;47.612;7.610;2022-12-10T07:13:23;170.23;;;53.03;;
9306;SDS011;4691;47.612;7.610;2022-12-10T07:15:48;166.70;;;52.72;;
9306;SDS011;4691;47.612;7.610;2022-12-10T07:18:14;107.43;;;40.75;;
9306;SDS011;4691;47.612;7.610;2022-12-10T07:20:39;125.28;;;45.60;;
9306;SDS011;4691;47.612;7.610;2022-12-10T07:23:04;113.20;;;42.13;;
9306;SDS011;4691;47.612;7.610;2022-12-10T07:25:30;136.32;;;45.38;;
9306;SDS011;4691;47.612;7.610;2022-12-10T07:27:55;148.93;;;46.63;;
9306;SDS011;4691;47.612;7.610;2022-12-10T07:30:20;126.88;;;43.47;;
9306;SDS011;4691;47.612;7.610;2022-12-10T07:32:46;119.20;;;41.22;;
9306;SDS011;4691;47.612;7.610;2022-12-10T07:35:11;174.75;;;50.47;;
9306;SDS011;4691;47.612;7.610;2022-12-10T07:37:36;98.68;;;37.03;;
9306;SDS011;4691;47.612;7.610;2022-12-10T07:40:02;94.85;;;35.88;;
9306;SDS011;4691;47.612;7.610;2022-12-10T07:42:28;135.20;;;42.65;;
9306;SDS011;4691;47.612;7.610;2022-12-10T07:44:53;153.35;;;44.72;;
9306;SDS011;4691;47.612;7.610;2022-12-10T07:47:18;149.75;;;43.75;;
9306;SDS011;4691;47.612;7.610;2022-12-10T07:49:44;122.53;;;42.03;;
9306;SDS011;4691;47.612;7.610;2022-12-10T07:52:10;140.55;;;43.63;;
9306;SDS011;4691;47.612;7.610;2022-12-10T07:54:35;132.75;;;42.42;;
9306;SDS011;4691;47.612;7.610;2022-12-10T07:57:00;177.88;;;47.17;;
9306;SDS011;4691;47.612;7.610;2022-12-10T07:59:26;209.30;;;51.28;;
9306;SDS011;4691;47.612;7.610;2022-12-10T08:01:52;253.15;;;57.92;;
9306;SDS011;4691;47.612;7.610;2022-12-10T08:04:17;232.00;;;55.60;;
9306;SDS011;4691;47.612;7.610;2022-12-10T08:06:42;232.05;;;58.70;;
9306;SDS011;4691;47.612;7.610;2022-12-10T08:09:09;229.52;;;55.72;;
9306;SDS011;4691;47.612;7.610;2022-12-10T08:11:35;226.30;;;52.47;;
9306;SDS011;4691;47.612;7.610;2022-12-10T08:14:00;218.80;;;54.22;;
9306;SDS011;4691;47.612;7.610;2022-12-10T08:16:27;235.75;;;58.85;;
9306;SDS011;4691;47.612;7.610;2022-12-10T08:18:54;252.75;;;54.53;;
9306;SDS011;4691;47.612;7.610;2022-12-10T08:21:21;212.77;;;50.85;;
9306;SDS011;4691;47.612;7.610;2022-12-10T08:23:48;189.65;;;50.75;;
9306;SDS011;4691;47.612;7.610;2022-12-10T08:26:21;232.32;;;56.58;;
9306;SDS011;4691;47.612;7.610;2022-12-10T08:28:49;224.70;;;56.83;;
9306;SDS011;4691;47.612;7.610;2022-12-10T08:31:16;230.40;;;53.42;;
9306;SDS011;4691;47.612;7.610;2022-12-10T08:33:43;247.48;;;53.92;;
9306;SDS011;4691;47.612;7.610;2022-12-10T08:36:09;243.85;;;56.83;;
9306;SDS011;4691;47.612;7.610;2022-12-10T08:38:36;243.48;;;56.53;;
9306;SDS011;4691;47.612;7.610;2022-12-10T08:41:09;177.02;;;48.78;;
9306;SDS011;4691;47.612;7.610;2022-12-10T08:43:39;184.30;;;47.80;;
9306;SDS011;4691;47.612;7.610;2022-12-10T08:46:05;229.98;;;54.13;;
9306;SDS011;4691;47.612;7.610;2022-12-10T08:48:32;150.10;;;47.88;;
9306;SDS011;4691;47.612;7.610;2022-12-10T08:50:58;173.93;;;49.05;;
9306;SDS011;4691;47.612;7.610;2022-12-10T08:53:23;197.43;;;51.40;;
9306;SDS011;4691;47.612;7.610;2022-12-10T08:55:49;209.57;;;54.13;;
9306;SDS011;4691;47.612;7.610;2022-12-10T08:58:18;214.52;;;54.10;;
9306;SDS011;4691;47.612;7.610;2022-12-10T09:00:44;192.57;;;53.70;;
9306;SDS011;4691;47.612;7.610;2022-12-10T09:03:09;216.48;;;54.70;;
9306;SDS011;4691;47.612;7.610;2022-12-10T09:05:35;220.50;;;55.17;;
9306;SDS011;4691;47.612;7.610;2022-12-10T09:08:00;178.38;;;49.75;;
9306;SDS011;4691;47.612;7.610;2022-12-10T09:10:26;188.20;;;50.25;;
9306;SDS011;4691;47.612;7.610;2022-12-10T09:12:51;215.32;;;55.20;;
9306;SDS011;4691;47.612;7.610;2022-12-10T09:15:16;207.60;;;53.30;;
9306;SDS011;4691;47.612;7.610;2022-12-10T09:17:42;229.52;;;55.67;;
9306;SDS011;4691;47.612;7.610;2022-12-10T09:20:07;160.45;;;48.42;;
9306;SDS011;4691;47.612;7.610;2022-12-10T09:22:32;223.32;;;54.22;;
9306;SDS011;4691;47.612;7.610;2022-12-10T09:25:01;193.57;;;51.90;;
9306;SDS011;4691;47.612;7.610;2022-12-10T09:27:31;223.85;;;53.17;;
9306;SDS011;4691;47.612;7.610;2022-12-10T09:29:57;219.68;;;54.50;;
9306;SDS011;4691;47.612;7.610;2022-12-10T09:32:22;229.80;;;57.47;;
9306;SDS011;4691;47.612;7.610;2022-12-10T09:34:50;229.10;;;58.55;;
9306;SDS011;4691;47.612;7.610;2022-12-10T09:37:16;236.05;;;55.38;;
9306;SDS011;4691;47.612;7.610;2022-12-10T09:39:41;233.98;;;56.22;;
9306;SDS011;4691;47.612;7.610;2022-12-10T09:52:55;224.52;;;57.30;;
9306;SDS011;4691;47.612;7.610;2022-12-10T09:55:37;211.88;;;52.08;;
9306;SDS011;4691;47.612;7.610;2022-12-10T09:58:05;205.15;;;52.67;;
9306;SDS011;4691;47.612;7.610;2022-12-10T10:00:39;197.50;;;52.13;;
9306;SDS011;4691;47.612;7.610;2022-12-10T10:03:06;170.50;;;47.35;;
9306;SDS011;4691;47.612;7.610;2022-12-10T10:05:39;235.07;;;56.70;;
9306;SDS011;4691;47.612;7.610;2022-12-10T10:08:11;209.50;;;54.42;;
9306;SDS011;4691;47.612;7.610;2022-12-10T10:10:39;206.45;;;53.97;;
9306;SDS011;4691;47.612;7.610;2022-12-10T10:15:32;230.20;;;58.08;;
9306;SDS011;4691;47.612;7.610;2022-12-10T10:20:47;233.00;;;56.25;;
9306;SDS011;4691;47.612;7.610;2022-12-10T10:23:13;225.15;;;58.03;;
9306;SDS011;4691;47.612;7.610;2022-12-10T10:25:40;235.43;;;60.72;;
9306;SDS011;4691;47.612;7.610;2022-12-10T10:28:07;215.48;;;58.72;;
9306;SDS011;4691;47.612;7.610;2022-12-10T10:30:37;235.13;;;59.35;;
9306;SDS011;4691;47.612;7.610;2022-12-10T10:33:08;210.57;;;53.95;;
9306;SDS011;4691;47.612;7.610;2022-12-10T10:35:42;194.50;;;53.35;;
9306;SDS011;4691;47.612;7.610;2022-12-10T10:38:16;181.95;;;50.42;;
9306;SDS011;4691;47.612;7.610;2022-12-10T10:40:46;219.30;;;55.30;;
9306;SDS011;4691;47.612;7.610;2022-12-10T10:43:18;214.88;;;58.83;;
9306;SDS011;4691;47.612;7.610;2022-12-10T10:45:51;235.38;;;60.13;;
9306;SDS011;4691;47.612;7.610;2022-12-10T10:48:22;238.23;;;63.40;;
9306;SDS011;4691;47.612;7.610;2022-12-10T10:50:53;214.50;;;61.83;;
9306;SDS011;4691;47.612;7.610;2022-12-10T10:55:51;228.32;;;62.20;;
9306;SDS011;4691;47.612;7.610;2022-12-10T10:58:20;198.50;;;55.17;;
9306;SDS011;4691;47.612;7.610;2022-12-10T11:03:48;226.02;;;57.10;;
9306;SDS011;4691;47.612;7.610;2022-12-10T11:06:18;216.70;;;58.20;;
9306;SDS011;4691;47.612;7.610;2022-12-10T11:08:45;185.20;;;52.38;;
9306;SDS011;4691;47.612;7.610;2022-12-10T11:11:12;244.25;;;63.97;;
9306;SDS011;4691;47.612;7.610;2022-12-10T11:13:44;226.65;;;57.92;;
9306;SDS011;4691;47.612;7.610;2022-12-10T11:18:51;228.25;;;60.78;;
9306;SDS011;4691;47.612;7.610;2022-12-10T11:21:28;181.35;;;52.75;;
9306;SDS011;4691;47.612;7.610;2022-12-10T11:23:55;234.20;;;59.85;;
9306;SDS011;4691;47.612;7.610;2022-12-10T11:29:05;195.07;;;54.17;;
9306;SDS011;4691;47.612;7.610;2022-12-10T11:34:40;195.45;;;50.90;;
9306;SDS011;4691;47.612;7.610;2022-12-10T11:51:08;195.27;;;52.08;;
9306;SDS011;4691;47.612;7.610;2022-12-10T11:58:57;145.30;;;45.72;;
9306;SDS011;4691;47.612;7.610;2022-12-10T12:07:03;155.60;;;49.63;;
9306;SDS011;4691;47.612;7.610;2022-12-10T12:12:40;225.85;;;60.30;;
9306;SDS011;4691;47.612;7.610;2022-12-10T12:18:28;162.18;;;52.00;;
9306;SDS011;4691;47.612;7.610;2022-12-10T12:21:07;146.32;;;44.33;;
9306;SDS011;4691;47.612;7.610;2022-12-10T12:28:54;195.93;;;58.05;;
9306;SDS011;4691;47.612;7.610;2022-12-10T12:31:32;202.98;;;52.80;;
9306;SDS011;4691;47.612;7.610;2022-12-10T12:34:15;170.20;;;51.03;;
9306;SDS011;4691;47.612;7.610;2022-12-10T12:36:45;163.13;;;48.03;;
9306;SDS011;4691;47.612;7.610;2022-12-10T12:44:28;171.13;;;48.35;;
9306;SDS011;4691;47.612;7.610;2022-12-10T12:46:55;189.43;;;54.10;;
9306;SDS011;4691;47.612;7.610;2022-12-10T12:49:24;140.50;;;48.72;;
9306;SDS011;4691;47.612;7.610;2022-12-10T12:52:00;184.32;;;50.22;;
9306;SDS011;4691;47.612;7.610;2022-12-10T12:54:30;197.88;;;52.40;;
9306;SDS011;4691;47.612;7.610;2022-12-10T13:05:01;175.35;;;49.38;;
9306;SDS011;4691;47.612;7.610;2022-12-10T13:07:31;160.82;;;50.50;;
9306;SDS011;4691;47.612;7.610;2022-12-10T13:12:49;221.57;;;53.33;;
9306;SDS011;4691;47.612;7.610;2022-12-10T13:15:18;162.40;;;51.42;;
9306;SDS011;4691;47.612;7.610;2022-12-10T13:28:21;177.80;;;50.22;;
9306;SDS011;4691;47.612;7.610;2022-12-10T13:31:06;186.02;;;53.17;;
9306;SDS011;4691;47.612;7.610;2022-12-10T13:33:49;140.07;;;45.55;;
9306;SDS011;4691;47.612;7.610;2022-12-10T13:36:19;218.18;;;55.88;;
9306;SDS011;4691;47.612;7.610;2022-12-10T13:39:11;196.20;;;51.25;;
9306;SDS011;4691;47.612;7.610;2022-12-10T13:45:05;195.32;;;56.03;;
9306;SDS011;4691;47.612;7.610;2022-12-10T13:47:49;248.10;;;63.55;;
9306;SDS011;4691;47.612;7.610;2022-12-10T13:50:42;234.60;;;60.15;;
9306;SDS011;4691;47.612;7.610;2022-12-10T14:01:02;213.45;;;55.22;;
9306;SDS011;4691;47.612;7.610;2022-12-10T14:03:38;199.30;;;52.15;;
9306;SDS011;4691;47.612;7.610;2022-12-10T14:14:40;185.15;;;49.95;;
9306;SDS011;4691;47.612;7.610;2022-12-10T14:17:12;178.98;;;51.03;;
9306;SDS011;4691;47.612;7.610;2022-12-10T14:19:41;199.55;;;52.95;;
9306;SDS011;4691;47.612;7.610;2022-12-10T14:22:08;175.25;;;51.58;;
9306;SDS011;4691;47.612;7.610;2022-12-10T14:24:40;170.25;;;47.72;;
9306;SDS011;4691;47.612;7.610;2022-12-10T14:27:15;187.77;;;51.92;;
9306;SDS011;4691;47.612;7.610;2022-12-10T14:29:49;148.27;;;47.10;;
9306;SDS011;4691;47.612;7.610;2022-12-10T14:32:18;205.35;;;55.72;;
9306;SDS011;4691;47.612;7.610;2022-12-10T14:34:52;158.13;;;46.95;;
9306;SDS011;4691;47.612;7.610;2022-12-10T14:37:25;185.88;;;50.65;;
9306;SDS011;4691;47.612;7.610;2022-12-10T14:39:52;133.02;;;43.97;;
9306;SDS011;4691;47.612;7.610;2022-12-10T14:42:18;220.93;;;56.80;;
9306;SDS011;4691;47.612;7.610;2022-12-10T14:44:44;166.25;;;49.13;;
9306;SDS011;4691;47.612;7.610;2022-12-10T14:47:13;137.80;;;45.72;;
9306;SDS011;4691;47.612;7.610;2022-12-10T14:49:45;183.38;;;51.80;;
9306;SDS011;4691;47.612;7.610;2022-12-10T14:52:16;175.85;;;49.17;;
9306;SDS011;4691;47.612;7.610;2022-12-10T14:54:43;184.80;;;50.72;;
9306;SDS011;4691;47.612;7.610;2022-12-10T14:57:15;148.70;;;45.45;;
9306;SDS011;4691;47.612;7.610;2022-12-10T14:59:47;152.02;;;47.42;;
9306;SDS011;4691;47.612;7.610;2022-12-10T15:02:26;185.05;;;48.88;;
9306;SDS011;4691;47.612;7.610;2022-12-10T15:04:54;163.10;;;46.15;;
9306;SDS011;4691;47.612;7.610;2022-12-10T15:07:22;140.45;;;43.80;;
9306;SDS011;4691;47.612;7.610;2022-12-10T15:09:50;143.85;;;44.78;;
9306;SDS011;4691;47.612;7.610;2022-12-10T15:12:41;122.65;;;41.67;;
9306;SDS011;4691;47.612;7.610;2022-12-10T15:15:13;161.25;;;47.50;;
9306;SDS011;4691;47.612;7.610;2022-12-10T15:17:42;197.88;;;49.28;;
9306;SDS011;4691;47.612;7.610;2022-12-10T15:20:19;204.48;;;53.70;;
9306;SDS011;4691;47.612;7.610;2022-12-10T15:22:46;174.20;;;50.17;;
9306;SDS011;4691;47.612;7.610;2022-12-10T15:25:13;153.73;;;48.88;;
9306;SDS011;4691;47.612;7.610;2022-12-10T15:27:52;238.25;;;64.47;;
9306;SDS011;4691;47.612;7.610;2022-12-10T15:30:22;280.33;;;72.45;;
9306;SDS011;4691;47.612;7.610;2022-12-10T15:32:50;267.77;;;84.43;;
9306;SDS011;4691;47.612;7.610;2022-12-10T15:35:15;205.73;;;63.25;;
9306;SDS011;4691;47.612;7.610;2022-12-10T15:37:41;150.38;;;49.45;;
9306;SDS011;4691;47.612;7.610;2022-12-10T15:40:21;149.35;;;50.20;;
9306;SDS011;4691;47.612;7.610;2022-12-10T15:42:52;141.80;;;47.53;;
9306;SDS011;4691;47.612;7.610;2022-12-10T15:45:39;204.43;;;68.20;;
9306;SDS011;4691;47.612;7.610;2022-12-10T15:48:07;156.02;;;53.80;;
9306;SDS011;4691;47.612;7.610;2022-12-10T15:50:35;233.90;;;61.17;;
9306;SDS011;4691;47.612;7.610;2022-12-10T15:53:01;230.43;;;62.35;;
9306;SDS011;4691;47.612;7.610;2022-12-10T15:55:26;158.07;;;46.85;;
9306;SDS011;4691;47.612;7.610;2022-12-10T15:57:52;125.82;;;42.33;;
9306;SDS011;4691;47.612;7.610;2022-12-10T16:00:21;226.18;;;61.97;;
9306;SDS011;4691;47.612;7.610;2022-12-10T16:02:55;161.02;;;54.53;;
9306;SDS011;4691;47.612;7.610;2022-12-10T16:05:28;151.55;;;50.28;;
9306;SDS011;4691;47.612;7.610;2022-12-10T16:07:56;192.82;;;57.13;;
9306;SDS011;4691;47.612;7.610;2022-12-10T16:10:25;138.68;;;49.90;;
9306;SDS011;4691;47.612;7.610;2022-12-10T16:13:37;187.82;;;51.80;;
9306;SDS011;4691;47.612;7.610;2022-12-10T16:15:46;164.48;;;50.40;;
9306;SDS011;4691;47.612;7.610;2022-12-10T16:18:15;127.50;;;44.20;;
9306;SDS011;4691;47.612;7.610;2022-12-10T16:20:40;131.27;;;43.42;;
9306;SDS011;4691;47.612;7.610;2022-12-10T16:23:06;176.32;;;51.80;;
9306;SDS011;4691;47.612;7.610;2022-12-10T16:25:32;188.13;;;50.17;;
9306;SDS011;4691;47.612;7.610;2022-12-10T16:27:58;122.72;;;43.45;;
9306;SDS011;4691;47.612;7.610;2022-12-10T16:30:26;180.77;;;50.78;;
9306;SDS011;4691;47.612;7.610;2022-12-10T16:32:56;166.25;;;46.65;;
9306;SDS011;4691;47.612;7.610;2022-12-10T16:35:22;171.18;;;50.15;;
9306;SDS011;4691;47.612;7.610;2022-12-10T16:37:48;180.10;;;53.15;;
9306;SDS011;4691;47.612;7.610;2022-12-10T16:40:16;194.23;;;55.72;;
9306;SDS011;4691;47.612;7.610;2022-12-10T16:42:42;161.82;;;51.33;;
9306;SDS011;4691;47.612;7.610;2022-12-10T16:45:15;186.55;;;57.20;;
9306;SDS011;4691;47.612;7.610;2022-12-10T16:47:44;176.18;;;54.63;;
9306;SDS011;4691;47.612;7.610;2022-12-10T16:50:10;214.82;;;58.88;;
9306;SDS011;4691;47.612;7.610;2022-12-10T16:52:36;169.88;;;54.05;;
9306;SDS011;4691;47.612;7.610;2022-12-10T16:55:02;187.45;;;53.45;;
9306;SDS011;4691;47.612;7.610;2022-12-10T16:57:28;150.63;;;51.13;;
9306;SDS011;4691;47.612;7.610;2022-12-10T16:59:53;166.32;;;52.72;;
9306;SDS011;4691;47.612;7.610;2022-12-10T17:02:19;183.30;;;54.72;;